sensor_id;sensor_type;location;lat;lon;timestamp;P1;durP1;ratioP1;P2;durP2;ratioP2
25299;SDS011;13241;51.208;4.432;2022-07-01T00:02:19;6.00;;;2.90;;
25299;SDS011;13241;51.208;4.432;2022-07-01T00:04:47;5.43;;;2.38;;
25299;SDS011;13241;51.208;4.432;2022-07-01T00:07:32;3.63;;;2.58;;
25299;SDS011;13241;51.208;4.432;2022-07-01T00:09:59;6.80;;;2.97;;
25299;SDS011;13241;51.208;4.432;2022-07-01T00:12:27;6.78;;;2.63;;
25299;SDS011;13241;51.208;4.432;2022-07-01T00:14:54;5.30;;;2.30;;
25299;SDS011;13241;51.208;4.432;2022-07-01T00:17:21;6.57;;;2.40;;
25299;SDS011;13241;51.208;4.432;2022-07-01T00:19:48;4.13;;;2.45;;
25299;SDS011;13241;51.208;4.432;2022-07-01T00:22:16;4.10;;;2.30;;
25299;SDS011;13241;51.208;4.432;2022-07-01T00:24:44;4.30;;;2.25;;
25299;SDS011;13241;51.208;4.432;2022-07-01T00:27:12;4.00;;;2.30;;
25299;SDS011;13241;51.208;4.432;2022-07-01T00:29:39;4.40;;;2.08;;
25299;SDS011;13241;51.208;4.432;2022-07-01T00:32:08;6.10;;;2.65;;
25299;SDS011;13241;51.208;4.432;2022-07-01T00:34:35;5.43;;;2.78;;
25299;SDS011;13241;51.208;4.432;2022-07-01T00:37:03;6.70;;;2.75;;
25299;SDS011;13241;51.208;4.432;2022-07-01T00:39:30;6.88;;;2.88;;
25299;SDS011;13241;51.208;4.432;2022-07-01T00:41:58;10.43;;;2.75;;
25299;SDS011;13241;51.208;4.432;2022-07-01T00:44:27;13.85;;;2.47;;
25299;SDS011;13241;51.208;4.432;2022-07-01T00:46:55;4.65;;;2.53;;
25299;SDS011;13241;51.208;4.432;2022-07-01T00:49:24;5.93;;;2.75;;
25299;SDS011;13241;51.208;4.432;2022-07-01T00:51:52;7.18;;;2.58;;
25299;SDS011;13241;51.208;4.432;2022-07-01T00:54:20;4.10;;;2.22;;
25299;SDS011;13241;51.208;4.432;2022-07-01T00:56:47;6.60;;;2.65;;
25299;SDS011;13241;51.208;4.432;2022-07-01T00:59:14;4.50;;;2.75;;
25299;SDS011;13241;51.208;4.432;2022-07-01T01:01:41;7.13;;;3.42;;
25299;SDS011;13241;51.208;4.432;2022-07-01T01:04:08;8.23;;;2.65;;
25299;SDS011;13241;51.208;4.432;2022-07-01T01:06:36;6.45;;;2.17;;
25299;SDS011;13241;51.208;4.432;2022-07-01T01:09:02;9.40;;;2.47;;
25299;SDS011;13241;51.208;4.432;2022-07-01T01:11:29;2.90;;;2.53;;
25299;SDS011;13241;51.208;4.432;2022-07-01T01:13:58;5.60;;;2.83;;
25299;SDS011;13241;51.208;4.432;2022-07-01T01:16:25;5.57;;;3.10;;
25299;SDS011;13241;51.208;4.432;2022-07-01T01:18:52;4.28;;;2.35;;
25299;SDS011;13241;51.208;4.432;2022-07-01T01:21:20;6.18;;;2.72;;
25299;SDS011;13241;51.208;4.432;2022-07-01T01:23:47;5.25;;;2.72;;
25299;SDS011;13241;51.208;4.432;2022-07-01T01:26:15;6.70;;;2.90;;
25299;SDS011;13241;51.208;4.432;2022-07-01T01:28:47;4.55;;;2.58;;
25299;SDS011;13241;51.208;4.432;2022-07-01T01:31:14;5.72;;;3.13;;
25299;SDS011;13241;51.208;4.432;2022-07-01T01:33:42;7.50;;;3.90;;
25299;SDS011;13241;51.208;4.432;2022-07-01T01:36:10;5.25;;;3.22;;
25299;SDS011;13241;51.208;4.432;2022-07-01T01:38:37;7.30;;;3.58;;
25299;SDS011;13241;51.208;4.432;2022-07-01T01:41:04;5.47;;;3.00;;
25299;SDS011;13241;51.208;4.432;2022-07-01T01:43:31;12.85;;;3.05;;
25299;SDS011;13241;51.208;4.432;2022-07-01T01:46:02;8.07;;;3.80;;
25299;SDS011;13241;51.208;4.432;2022-07-01T01:48:30;6.43;;;3.90;;
25299;SDS011;13241;51.208;4.432;2022-07-01T01:50:57;4.97;;;2.78;;
25299;SDS011;13241;51.208;4.432;2022-07-01T01:53:24;5.80;;;3.33;;
25299;SDS011;13241;51.208;4.432;2022-07-01T01:55:51;7.35;;;3.58;;
25299;SDS011;13241;51.208;4.432;2022-07-01T01:58:18;6.90;;;3.38;;
25299;SDS011;13241;51.208;4.432;2022-07-01T02:00:45;7.90;;;3.15;;
25299;SDS011;13241;51.208;4.432;2022-07-01T02:03:12;7.93;;;3.47;;
25299;SDS011;13241;51.208;4.432;2022-07-01T02:05:39;7.25;;;3.53;;
25299;SDS011;13241;51.208;4.432;2022-07-01T02:08:12;5.50;;;3.83;;
25299;SDS011;13241;51.208;4.432;2022-07-01T02:10:39;7.18;;;3.92;;
25299;SDS011;13241;51.208;4.432;2022-07-01T02:13:06;10.90;;;3.92;;
25299;SDS011;13241;51.208;4.432;2022-07-01T02:15:33;10.40;;;3.83;;
25299;SDS011;13241;51.208;4.432;2022-07-01T02:18:04;8.15;;;3.88;;
25299;SDS011;13241;51.208;4.432;2022-07-01T02:20:32;8.73;;;3.55;;
25299;SDS011;13241;51.208;4.432;2022-07-01T02:23:00;8.05;;;3.13;;
25299;SDS011;13241;51.208;4.432;2022-07-01T02:25:27;9.52;;;4.35;;
25299;SDS011;13241;51.208;4.432;2022-07-01T02:27:54;9.10;;;3.28;;
25299;SDS011;13241;51.208;4.432;2022-07-01T02:30:21;6.75;;;3.80;;
25299;SDS011;13241;51.208;4.432;2022-07-01T02:32:48;6.70;;;3.33;;
25299;SDS011;13241;51.208;4.432;2022-07-01T02:35:16;5.88;;;3.80;;
25299;SDS011;13241;51.208;4.432;2022-07-01T02:37:43;6.65;;;3.92;;
25299;SDS011;13241;51.208;4.432;2022-07-01T02:40:09;6.88;;;3.22;;
25299;SDS011;13241;51.208;4.432;2022-07-01T02:42:39;6.90;;;3.38;;
25299;SDS011;13241;51.208;4.432;2022-07-01T02:45:07;9.23;;;3.63;;
25299;SDS011;13241;51.208;4.432;2022-07-01T02:47:38;9.32;;;3.70;;
25299;SDS011;13241;51.208;4.432;2022-07-01T02:50:06;8.98;;;3.72;;
25299;SDS011;13241;51.208;4.432;2022-07-01T02:52:35;5.90;;;3.63;;
25299;SDS011;13241;51.208;4.432;2022-07-01T02:55:04;6.38;;;3.90;;
25299;SDS011;13241;51.208;4.432;2022-07-01T02:57:32;7.05;;;3.42;;
25299;SDS011;13241;51.208;4.432;2022-07-01T02:59:59;7.80;;;3.28;;
25299;SDS011;13241;51.208;4.432;2022-07-01T03:02:26;4.55;;;3.50;;
25299;SDS011;13241;51.208;4.432;2022-07-01T03:04:54;8.05;;;4.25;;
25299;SDS011;13241;51.208;4.432;2022-07-01T03:07:21;9.45;;;3.60;;
25299;SDS011;13241;51.208;4.432;2022-07-01T03:09:48;4.68;;;3.00;;
25299;SDS011;13241;51.208;4.432;2022-07-01T03:12:15;7.75;;;4.05;;
25299;SDS011;13241;51.208;4.432;2022-07-01T03:14:52;5.65;;;3.28;;
25299;SDS011;13241;51.208;4.432;2022-07-01T03:17:25;7.85;;;3.58;;
25299;SDS011;13241;51.208;4.432;2022-07-01T03:19:54;13.60;;;3.67;;
25299;SDS011;13241;51.208;4.432;2022-07-01T03:22:22;5.65;;;3.88;;
25299;SDS011;13241;51.208;4.432;2022-07-01T03:24:51;8.13;;;3.70;;
25299;SDS011;13241;51.208;4.432;2022-07-01T03:27:18;5.47;;;3.47;;
25299;SDS011;13241;51.208;4.432;2022-07-01T03:29:47;6.90;;;3.58;;
25299;SDS011;13241;51.208;4.432;2022-07-01T03:32:14;6.70;;;3.60;;
25299;SDS011;13241;51.208;4.432;2022-07-01T03:34:42;8.15;;;3.85;;
25299;SDS011;13241;51.208;4.432;2022-07-01T03:37:12;6.07;;;3.30;;
25299;SDS011;13241;51.208;4.432;2022-07-01T03:39:40;6.75;;;3.65;;
25299;SDS011;13241;51.208;4.432;2022-07-01T03:42:08;5.32;;;2.92;;
25299;SDS011;13241;51.208;4.432;2022-07-01T03:44:36;9.15;;;3.60;;
25299;SDS011;13241;51.208;4.432;2022-07-01T03:47:05;7.32;;;3.97;;
25299;SDS011;13241;51.208;4.432;2022-07-01T03:49:33;8.38;;;3.92;;
25299;SDS011;13241;51.208;4.432;2022-07-01T03:52:01;8.35;;;3.70;;
25299;SDS011;13241;51.208;4.432;2022-07-01T03:54:29;4.95;;;3.30;;
25299;SDS011;13241;51.208;4.432;2022-07-01T03:56:57;7.95;;;4.20;;
25299;SDS011;13241;51.208;4.432;2022-07-01T03:59:32;5.95;;;3.67;;
25299;SDS011;13241;51.208;4.432;2022-07-01T04:02:03;7.00;;;3.60;;
25299;SDS011;13241;51.208;4.432;2022-07-01T04:04:31;5.15;;;3.13;;
25299;SDS011;13241;51.208;4.432;2022-07-01T04:06:59;9.63;;;3.63;;
25299;SDS011;13241;51.208;4.432;2022-07-01T04:09:28;8.93;;;3.50;;
25299;SDS011;13241;51.208;4.432;2022-07-01T04:11:55;13.38;;;3.47;;
25299;SDS011;13241;51.208;4.432;2022-07-01T04:14:23;5.50;;;3.28;;
25299;SDS011;13241;51.208;4.432;2022-07-01T04:16:53;7.88;;;3.53;;
25299;SDS011;13241;51.208;4.432;2022-07-01T04:19:20;10.20;;;3.50;;
25299;SDS011;13241;51.208;4.432;2022-07-01T04:21:47;4.40;;;3.08;;
25299;SDS011;13241;51.208;4.432;2022-07-01T04:24:32;7.28;;;3.55;;
25299;SDS011;13241;51.208;4.432;2022-07-01T04:27:00;7.30;;;3.53;;
25299;SDS011;13241;51.208;4.432;2022-07-01T04:29:27;8.48;;;3.10;;
25299;SDS011;13241;51.208;4.432;2022-07-01T04:31:56;6.93;;;3.58;;
25299;SDS011;13241;51.208;4.432;2022-07-01T04:34:24;9.10;;;3.45;;
25299;SDS011;13241;51.208;4.432;2022-07-01T04:36:51;9.98;;;3.72;;
25299;SDS011;13241;51.208;4.432;2022-07-01T04:39:18;8.45;;;3.17;;
25299;SDS011;13241;51.208;4.432;2022-07-01T04:41:45;6.30;;;3.47;;
25299;SDS011;13241;51.208;4.432;2022-07-01T04:44:28;7.35;;;4.03;;
25299;SDS011;13241;51.208;4.432;2022-07-01T04:47:03;6.28;;;3.83;;
25299;SDS011;13241;51.208;4.432;2022-07-01T04:49:31;11.00;;;3.80;;
25299;SDS011;13241;51.208;4.432;2022-07-01T04:51:58;7.53;;;3.72;;
25299;SDS011;13241;51.208;4.432;2022-07-01T04:54:27;6.65;;;4.28;;
25299;SDS011;13241;51.208;4.432;2022-07-01T04:56:54;6.93;;;3.28;;
25299;SDS011;13241;51.208;4.432;2022-07-01T04:59:21;7.10;;;3.28;;
25299;SDS011;13241;51.208;4.432;2022-07-01T05:01:48;6.93;;;3.40;;
25299;SDS011;13241;51.208;4.432;2022-07-01T05:04:16;8.02;;;3.80;;
25299;SDS011;13241;51.208;4.432;2022-07-01T05:06:44;10.43;;;3.78;;
25299;SDS011;13241;51.208;4.432;2022-07-01T05:09:11;11.93;;;3.70;;
25299;SDS011;13241;51.208;4.432;2022-07-01T05:11:39;7.80;;;3.55;;
25299;SDS011;13241;51.208;4.432;2022-07-01T05:14:07;6.95;;;3.33;;
25299;SDS011;13241;51.208;4.432;2022-07-01T05:16:34;5.43;;;3.28;;
25299;SDS011;13241;51.208;4.432;2022-07-01T05:19:02;5.65;;;3.47;;
25299;SDS011;13241;51.208;4.432;2022-07-01T05:21:48;7.97;;;3.63;;
25299;SDS011;13241;51.208;4.432;2022-07-01T05:24:26;8.13;;;3.30;;
25299;SDS011;13241;51.208;4.432;2022-07-01T05:26:57;8.80;;;3.22;;
25299;SDS011;13241;51.208;4.432;2022-07-01T05:29:26;9.98;;;2.80;;
25299;SDS011;13241;51.208;4.432;2022-07-01T05:31:53;4.85;;;2.92;;
25299;SDS011;13241;51.208;4.432;2022-07-01T05:34:20;4.07;;;2.58;;
25299;SDS011;13241;51.208;4.432;2022-07-01T05:36:47;4.55;;;2.13;;
25299;SDS011;13241;51.208;4.432;2022-07-01T05:39:14;3.58;;;2.33;;
25299;SDS011;13241;51.208;4.432;2022-07-01T05:41:41;7.15;;;2.55;;
25299;SDS011;13241;51.208;4.432;2022-07-01T05:44:08;10.27;;;2.08;;
25299;SDS011;13241;51.208;4.432;2022-07-01T05:46:35;2.88;;;1.95;;
25299;SDS011;13241;51.208;4.432;2022-07-01T05:49:02;5.97;;;2.15;;
25299;SDS011;13241;51.208;4.432;2022-07-01T05:51:31;4.78;;;2.15;;
25299;SDS011;13241;51.208;4.432;2022-07-01T05:53:58;4.65;;;2.22;;
25299;SDS011;13241;51.208;4.432;2022-07-01T05:56:25;3.88;;;2.03;;
25299;SDS011;13241;51.208;4.432;2022-07-01T05:58:52;11.65;;;3.30;;
25299;SDS011;13241;51.208;4.432;2022-07-01T06:01:20;7.30;;;2.22;;
25299;SDS011;13241;51.208;4.432;2022-07-01T06:03:48;5.15;;;2.55;;
25299;SDS011;13241;51.208;4.432;2022-07-01T06:06:15;5.40;;;2.50;;
25299;SDS011;13241;51.208;4.432;2022-07-01T06:08:44;3.42;;;1.70;;
25299;SDS011;13241;51.208;4.432;2022-07-01T06:11:11;5.40;;;2.65;;
25299;SDS011;13241;51.208;4.432;2022-07-01T06:13:38;2.92;;;1.67;;
25299;SDS011;13241;51.208;4.432;2022-07-01T06:16:06;4.03;;;1.88;;
25299;SDS011;13241;51.208;4.432;2022-07-01T06:18:33;2.67;;;1.65;;
25299;SDS011;13241;51.208;4.432;2022-07-01T06:21:00;4.45;;;1.63;;
25299;SDS011;13241;51.208;4.432;2022-07-01T06:23:27;6.10;;;1.55;;
25299;SDS011;13241;51.208;4.432;2022-07-01T06:25:55;9.02;;;1.77;;
25299;SDS011;13241;51.208;4.432;2022-07-01T06:28:22;2.17;;;1.45;;
25299;SDS011;13241;51.208;4.432;2022-07-01T06:30:49;10.65;;;1.90;;
25299;SDS011;13241;51.208;4.432;2022-07-01T06:33:16;5.22;;;1.67;;
25299;SDS011;13241;51.208;4.432;2022-07-01T06:35:43;8.18;;;1.70;;
25299;SDS011;13241;51.208;4.432;2022-07-01T06:38:09;3.33;;;1.80;;
25299;SDS011;13241;51.208;4.432;2022-07-01T06:40:36;4.13;;;1.90;;
25299;SDS011;13241;51.208;4.432;2022-07-01T06:43:03;5.93;;;1.83;;
25299;SDS011;13241;51.208;4.432;2022-07-01T06:45:30;8.20;;;1.73;;
25299;SDS011;13241;51.208;4.432;2022-07-01T06:47:57;6.53;;;1.45;;
25299;SDS011;13241;51.208;4.432;2022-07-01T06:50:24;4.57;;;2.28;;
25299;SDS011;13241;51.208;4.432;2022-07-01T06:52:51;1.98;;;1.30;;
25299;SDS011;13241;51.208;4.432;2022-07-01T06:55:18;4.97;;;2.38;;
25299;SDS011;13241;51.208;4.432;2022-07-01T06:57:45;3.75;;;1.20;;
25299;SDS011;13241;51.208;4.432;2022-07-01T07:00:12;3.00;;;1.35;;
25299;SDS011;13241;51.208;4.432;2022-07-01T07:02:39;4.82;;;1.33;;
25299;SDS011;13241;51.208;4.432;2022-07-01T07:05:07;5.25;;;1.10;;
25299;SDS011;13241;51.208;4.432;2022-07-01T07:07:35;2.05;;;1.02;;
25299;SDS011;13241;51.208;4.432;2022-07-01T07:10:02;4.13;;;1.45;;
25299;SDS011;13241;51.208;4.432;2022-07-01T07:12:29;1.95;;;1.20;;
25299;SDS011;13241;51.208;4.432;2022-07-01T07:14:57;2.20;;;1.20;;
25299;SDS011;13241;51.208;4.432;2022-07-01T07:17:24;10.63;;;2.05;;
25299;SDS011;13241;51.208;4.432;2022-07-01T07:19:51;2.13;;;1.00;;
25299;SDS011;13241;51.208;4.432;2022-07-01T07:22:18;1.77;;;0.82;;
25299;SDS011;13241;51.208;4.432;2022-07-01T07:24:45;6.03;;;2.33;;
25299;SDS011;13241;51.208;4.432;2022-07-01T07:27:13;1.40;;;1.00;;
25299;SDS011;13241;51.208;4.432;2022-07-01T07:29:40;1.30;;;0.90;;
25299;SDS011;13241;51.208;4.432;2022-07-01T07:32:08;6.38;;;1.17;;
25299;SDS011;13241;51.208;4.432;2022-07-01T07:34:35;2.13;;;1.27;;
25299;SDS011;13241;51.208;4.432;2022-07-01T07:37:04;6.30;;;1.20;;
25299;SDS011;13241;51.208;4.432;2022-07-01T07:39:31;4.88;;;1.20;;
25299;SDS011;13241;51.208;4.432;2022-07-01T07:41:58;4.65;;;1.13;;
25299;SDS011;13241;51.208;4.432;2022-07-01T07:44:26;2.63;;;0.77;;
25299;SDS011;13241;51.208;4.432;2022-07-01T07:46:54;6.95;;;1.65;;
25299;SDS011;13241;51.208;4.432;2022-07-01T07:49:21;2.08;;;0.75;;
25299;SDS011;13241;51.208;4.432;2022-07-01T07:51:47;2.53;;;1.00;;
25299;SDS011;13241;51.208;4.432;2022-07-01T07:54:15;4.22;;;1.23;;
25299;SDS011;13241;51.208;4.432;2022-07-01T07:56:42;3.33;;;0.90;;
25299;SDS011;13241;51.208;4.432;2022-07-01T07:59:11;3.58;;;1.00;;
25299;SDS011;13241;51.208;4.432;2022-07-01T08:01:38;5.68;;;1.15;;
25299;SDS011;13241;51.208;4.432;2022-07-01T08:04:06;3.83;;;0.60;;
25299;SDS011;13241;51.208;4.432;2022-07-01T08:06:33;2.28;;;0.80;;
25299;SDS011;13241;51.208;4.432;2022-07-01T08:09:00;8.68;;;1.38;;
25299;SDS011;13241;51.208;4.432;2022-07-01T08:11:27;9.00;;;1.23;;
25299;SDS011;13241;51.208;4.432;2022-07-01T08:13:54;3.13;;;1.23;;
25299;SDS011;13241;51.208;4.432;2022-07-01T08:16:22;4.68;;;1.23;;
25299;SDS011;13241;51.208;4.432;2022-07-01T08:18:50;1.67;;;0.82;;
25299;SDS011;13241;51.208;4.432;2022-07-01T08:21:17;3.97;;;0.68;;
25299;SDS011;13241;51.208;4.432;2022-07-01T08:23:44;2.60;;;0.80;;
25299;SDS011;13241;51.208;4.432;2022-07-01T08:26:11;4.32;;;0.88;;
25299;SDS011;13241;51.208;4.432;2022-07-01T08:28:40;2.58;;;0.68;;
25299;SDS011;13241;51.208;4.432;2022-07-01T08:31:08;3.90;;;0.90;;
25299;SDS011;13241;51.208;4.432;2022-07-01T08:33:35;1.73;;;0.73;;
25299;SDS011;13241;51.208;4.432;2022-07-01T08:36:05;1.95;;;0.90;;
25299;SDS011;13241;51.208;4.432;2022-07-01T08:38:33;4.32;;;0.60;;
25299;SDS011;13241;51.208;4.432;2022-07-01T08:41:01;1.75;;;0.70;;
25299;SDS011;13241;51.208;4.432;2022-07-01T08:43:30;1.17;;;0.73;;
25299;SDS011;13241;51.208;4.432;2022-07-01T08:45:58;3.42;;;0.60;;
25299;SDS011;13241;51.208;4.432;2022-07-01T08:48:28;2.90;;;0.70;;
25299;SDS011;13241;51.208;4.432;2022-07-01T08:50:55;3.20;;;0.93;;
25299;SDS011;13241;51.208;4.432;2022-07-01T08:53:22;4.95;;;0.93;;
25299;SDS011;13241;51.208;4.432;2022-07-01T08:55:49;3.45;;;0.70;;
25299;SDS011;13241;51.208;4.432;2022-07-01T08:58:35;1.05;;;0.52;;
25299;SDS011;13241;51.208;4.432;2022-07-01T09:01:14;5.75;;;0.88;;
25299;SDS011;13241;51.208;4.432;2022-07-01T09:03:43;4.80;;;1.02;;
25299;SDS011;13241;51.208;4.432;2022-07-01T09:06:13;3.00;;;1.08;;
25299;SDS011;13241;51.208;4.432;2022-07-01T09:08:47;0.82;;;0.40;;
25299;SDS011;13241;51.208;4.432;2022-07-01T09:11:18;2.65;;;0.70;;
25299;SDS011;13241;51.208;4.432;2022-07-01T09:16:47;11.77;;;0.85;;
25299;SDS011;13241;51.208;4.432;2022-07-01T09:19:16;0.93;;;0.65;;
25299;SDS011;13241;51.208;4.432;2022-07-01T09:21:50;10.02;;;0.55;;
25299;SDS011;13241;51.208;4.432;2022-07-01T09:24:33;1.63;;;0.70;;
25299;SDS011;13241;51.208;4.432;2022-07-01T09:27:03;5.10;;;0.43;;
25299;SDS011;13241;51.208;4.432;2022-07-01T09:29:49;1.48;;;0.95;;
25299;SDS011;13241;51.208;4.432;2022-07-01T09:32:19;0.45;;;0.30;;
25299;SDS011;13241;51.208;4.432;2022-07-01T09:34:48;4.25;;;0.50;;
25299;SDS011;13241;51.208;4.432;2022-07-01T09:37:23;4.22;;;0.88;;
25299;SDS011;13241;51.208;4.432;2022-07-01T09:39:52;1.17;;;0.50;;
25299;SDS011;13241;51.208;4.432;2022-07-01T09:42:24;0.85;;;0.50;;
25299;SDS011;13241;51.208;4.432;2022-07-01T09:47:29;5.05;;;0.85;;
25299;SDS011;13241;51.208;4.432;2022-07-01T09:49:57;2.25;;;0.65;;
25299;SDS011;13241;51.208;4.432;2022-07-01T09:52:25;6.00;;;0.80;;
25299;SDS011;13241;51.208;4.432;2022-07-01T09:55:01;2.95;;;0.75;;
25299;SDS011;13241;51.208;4.432;2022-07-01T09:57:28;1.20;;;0.47;;
25299;SDS011;13241;51.208;4.432;2022-07-01T09:59:55;3.72;;;0.40;;
25299;SDS011;13241;51.208;4.432;2022-07-01T10:02:22;3.60;;;0.90;;
25299;SDS011;13241;51.208;4.432;2022-07-01T10:04:53;1.17;;;0.52;;
25299;SDS011;13241;51.208;4.432;2022-07-01T10:13:12;1.70;;;1.05;;
25299;SDS011;13241;51.208;4.432;2022-07-01T10:15:42;0.50;;;0.35;;
25299;SDS011;13241;51.208;4.432;2022-07-01T10:18:21;1.58;;;0.65;;
25299;SDS011;13241;51.208;4.432;2022-07-01T10:20:50;4.85;;;0.73;;
25299;SDS011;13241;51.208;4.432;2022-07-01T10:23:22;4.88;;;0.55;;
25299;SDS011;13241;51.208;4.432;2022-07-01T10:25:51;1.58;;;0.32;;
25299;SDS011;13241;51.208;4.432;2022-07-01T10:33:37;0.70;;;0.70;;
25299;SDS011;13241;51.208;4.432;2022-07-01T10:36:34;1.33;;;0.50;;
25299;SDS011;13241;51.208;4.432;2022-07-01T10:41:37;2.25;;;0.60;;
25299;SDS011;13241;51.208;4.432;2022-07-01T10:44:39;2.77;;;0.70;;
25299;SDS011;13241;51.208;4.432;2022-07-01T10:47:07;1.77;;;0.63;;
25299;SDS011;13241;51.208;4.432;2022-07-01T10:52:08;0.40;;;0.40;;
25299;SDS011;13241;51.208;4.432;2022-07-01T10:59:54;1.08;;;0.70;;
25299;SDS011;13241;51.208;4.432;2022-07-01T11:02:25;3.60;;;0.60;;
25299;SDS011;13241;51.208;4.432;2022-07-01T11:05:00;8.10;;;0.68;;
25299;SDS011;13241;51.208;4.432;2022-07-01T11:07:42;4.28;;;1.05;;
25299;SDS011;13241;51.208;4.432;2022-07-01T11:10:15;3.40;;;0.50;;
25299;SDS011;13241;51.208;4.432;2022-07-01T11:12:43;2.10;;;0.80;;
25299;SDS011;13241;51.208;4.432;2022-07-01T11:15:11;0.50;;;0.45;;
25299;SDS011;13241;51.208;4.432;2022-07-01T11:17:43;2.33;;;0.90;;
25299;SDS011;13241;51.208;4.432;2022-07-01T11:20:11;1.45;;;0.85;;
25299;SDS011;13241;51.208;4.432;2022-07-01T11:22:38;1.75;;;0.98;;
25299;SDS011;13241;51.208;4.432;2022-07-01T11:25:07;3.08;;;0.93;;
25299;SDS011;13241;51.208;4.432;2022-07-01T11:27:38;4.22;;;0.90;;
25299;SDS011;13241;51.208;4.432;2022-07-01T11:30:08;1.27;;;0.98;;
25299;SDS011;13241;51.208;4.432;2022-07-01T11:32:42;4.28;;;0.70;;
25299;SDS011;13241;51.208;4.432;2022-07-01T11:35:15;1.58;;;0.40;;
25299;SDS011;13241;51.208;4.432;2022-07-01T11:38:13;0.43;;;0.43;;
25299;SDS011;13241;51.208;4.432;2022-07-01T11:41:02;1.60;;;0.60;;
25299;SDS011;13241;51.208;4.432;2022-07-01T11:43:32;1.20;;;0.60;;
25299;SDS011;13241;51.208;4.432;2022-07-01T11:46:08;2.30;;;0.82;;
25299;SDS011;13241;51.208;4.432;2022-07-01T11:48:42;2.72;;;1.02;;
25299;SDS011;13241;51.208;4.432;2022-07-01T11:51:18;3.20;;;0.60;;
25299;SDS011;13241;51.208;4.432;2022-07-01T11:53:51;6.55;;;1.40;;
25299;SDS011;13241;51.208;4.432;2022-07-01T11:56:30;1.73;;;0.70;;
25299;SDS011;13241;51.208;4.432;2022-07-01T11:59:07;0.93;;;0.60;;
25299;SDS011;13241;51.208;4.432;2022-07-01T12:01:35;2.80;;;0.77;;
25299;SDS011;13241;51.208;4.432;2022-07-01T12:04:05;2.30;;;1.08;;
25299;SDS011;13241;51.208;4.432;2022-07-01T12:06:34;2.45;;;0.75;;
25299;SDS011;13241;51.208;4.432;2022-07-01T12:09:04;1.90;;;0.73;;
25299;SDS011;13241;51.208;4.432;2022-07-01T12:11:46;1.58;;;0.70;;
25299;SDS011;13241;51.208;4.432;2022-07-01T12:14:22;2.53;;;0.80;;
25299;SDS011;13241;51.208;4.432;2022-07-01T12:16:58;5.20;;;0.80;;
25299;SDS011;13241;51.208;4.432;2022-07-01T12:22:09;0.60;;;0.55;;
25299;SDS011;13241;51.208;4.432;2022-07-01T12:24:50;4.68;;;0.80;;
25299;SDS011;13241;51.208;4.432;2022-07-01T12:27:20;1.98;;;0.60;;
25299;SDS011;13241;51.208;4.432;2022-07-01T12:29:52;1.10;;;0.75;;
25299;SDS011;13241;51.208;4.432;2022-07-01T12:32:25;3.92;;;0.47;;
25299;SDS011;13241;51.208;4.432;2022-07-01T12:34:58;0.40;;;0.40;;
25299;SDS011;13241;51.208;4.432;2022-07-01T12:40:02;2.10;;;0.50;;
25299;SDS011;13241;51.208;4.432;2022-07-01T12:45:10;4.68;;;0.40;;
25299;SDS011;13241;51.208;4.432;2022-07-01T12:50:36;3.92;;;0.73;;
25299;SDS011;13241;51.208;4.432;2022-07-01T12:55:36;3.45;;;0.50;;
25299;SDS011;13241;51.208;4.432;2022-07-01T13:00:48;0.98;;;0.73;;
25299;SDS011;13241;51.208;4.432;2022-07-01T13:03:26;1.00;;;0.40;;
25299;SDS011;13241;51.208;4.432;2022-07-01T13:05:56;1.13;;;0.43;;
25299;SDS011;13241;51.208;4.432;2022-07-01T13:08:23;1.85;;;0.60;;
25299;SDS011;13241;51.208;4.432;2022-07-01T13:13:44;2.97;;;0.80;;
25299;SDS011;13241;51.208;4.432;2022-07-01T13:19:03;1.50;;;0.80;;
25299;SDS011;13241;51.208;4.432;2022-07-01T13:21:30;0.75;;;0.73;;
25299;SDS011;13241;51.208;4.432;2022-07-01T13:23:58;5.18;;;1.05;;
25299;SDS011;13241;51.208;4.432;2022-07-01T13:26:46;3.25;;;0.80;;
25299;SDS011;13241;51.208;4.432;2022-07-01T13:29:13;0.45;;;0.40;;
25299;SDS011;13241;51.208;4.432;2022-07-01T13:31:41;2.92;;;0.90;;
25299;SDS011;13241;51.208;4.432;2022-07-01T13:34:09;0.75;;;0.50;;
25299;SDS011;13241;51.208;4.432;2022-07-01T13:36:37;5.55;;;1.00;;
25299;SDS011;13241;51.208;4.432;2022-07-01T13:39:07;6.35;;;1.02;;
25299;SDS011;13241;51.208;4.432;2022-07-01T13:41:35;7.72;;;1.05;;
25299;SDS011;13241;51.208;4.432;2022-07-01T13:44:03;0.88;;;0.55;;
25299;SDS011;13241;51.208;4.432;2022-07-01T13:46:30;1.00;;;0.70;;
25299;SDS011;13241;51.208;4.432;2022-07-01T13:48:58;2.70;;;1.08;;
25299;SDS011;13241;51.208;4.432;2022-07-01T13:51:25;3.90;;;1.10;;
25299;SDS011;13241;51.208;4.432;2022-07-01T13:53:52;2.58;;;0.63;;
25299;SDS011;13241;51.208;4.432;2022-07-01T13:56:19;5.75;;;1.15;;
25299;SDS011;13241;51.208;4.432;2022-07-01T13:58:48;7.00;;;1.02;;
25299;SDS011;13241;51.208;4.432;2022-07-01T14:01:21;3.35;;;0.68;;
25299;SDS011;13241;51.208;4.432;2022-07-01T14:03:51;5.88;;;0.80;;
25299;SDS011;13241;51.208;4.432;2022-07-01T14:06:19;3.13;;;0.73;;
25299;SDS011;13241;51.208;4.432;2022-07-01T14:08:46;5.13;;;0.80;;
25299;SDS011;13241;51.208;4.432;2022-07-01T14:11:17;3.83;;;0.95;;
25299;SDS011;13241;51.208;4.432;2022-07-01T14:13:46;1.63;;;0.82;;
25299;SDS011;13241;51.208;4.432;2022-07-01T14:16:13;3.88;;;1.27;;
25299;SDS011;13241;51.208;4.432;2022-07-01T14:18:44;5.18;;;0.73;;
25299;SDS011;13241;51.208;4.432;2022-07-01T14:21:17;1.25;;;0.55;;
25299;SDS011;13241;51.208;4.432;2022-07-01T14:23:47;4.47;;;1.05;;
25299;SDS011;13241;51.208;4.432;2022-07-01T14:26:22;1.83;;;0.63;;
25299;SDS011;13241;51.208;4.432;2022-07-01T14:28:49;3.85;;;1.20;;
25299;SDS011;13241;51.208;4.432;2022-07-01T14:31:16;0.75;;;0.65;;
25299;SDS011;13241;51.208;4.432;2022-07-01T14:33:43;4.25;;;1.15;;
25299;SDS011;13241;51.208;4.432;2022-07-01T14:36:12;5.60;;;0.73;;
25299;SDS011;13241;51.208;4.432;2022-07-01T14:38:40;5.00;;;1.10;;
25299;SDS011;13241;51.208;4.432;2022-07-01T14:41:07;4.28;;;0.82;;
25299;SDS011;13241;51.208;4.432;2022-07-01T14:43:34;1.73;;;0.65;;
25299;SDS011;13241;51.208;4.432;2022-07-01T14:46:02;4.88;;;0.70;;
25299;SDS011;13241;51.208;4.432;2022-07-01T14:48:35;1.75;;;0.82;;
25299;SDS011;13241;51.208;4.432;2022-07-01T14:51:05;2.35;;;0.57;;
25299;SDS011;13241;51.208;4.432;2022-07-01T14:53:32;1.38;;;0.57;;
25299;SDS011;13241;51.208;4.432;2022-07-01T14:55:59;2.85;;;0.45;;
25299;SDS011;13241;51.208;4.432;2022-07-01T14:58:27;1.65;;;0.60;;
25299;SDS011;13241;51.208;4.432;2022-07-01T15:00:54;1.73;;;0.60;;
25299;SDS011;13241;51.208;4.432;2022-07-01T15:03:21;2.70;;;0.60;;
25299;SDS011;13241;51.208;4.432;2022-07-01T15:05:48;3.90;;;0.77;;
25299;SDS011;13241;51.208;4.432;2022-07-01T15:08:20;1.45;;;0.63;;
25299;SDS011;13241;51.208;4.432;2022-07-01T15:10:47;2.50;;;0.70;;
25299;SDS011;13241;51.208;4.432;2022-07-01T15:13:15;2.22;;;0.80;;
25299;SDS011;13241;51.208;4.432;2022-07-01T15:15:43;5.97;;;0.65;;
25299;SDS011;13241;51.208;4.432;2022-07-01T15:18:11;8.77;;;0.75;;
25299;SDS011;13241;51.208;4.432;2022-07-01T15:20:38;1.60;;;0.70;;
25299;SDS011;13241;51.208;4.432;2022-07-01T15:23:05;2.25;;;0.68;;
25299;SDS011;13241;51.208;4.432;2022-07-01T15:25:32;6.40;;;0.73;;
25299;SDS011;13241;51.208;4.432;2022-07-01T15:27:59;2.42;;;0.90;;
25299;SDS011;13241;51.208;4.432;2022-07-01T15:30:26;3.13;;;0.77;;
25299;SDS011;13241;51.208;4.432;2022-07-01T15:32:54;1.88;;;0.40;;
25299;SDS011;13241;51.208;4.432;2022-07-01T15:35:22;2.75;;;0.47;;
25299;SDS011;13241;51.208;4.432;2022-07-01T15:37:49;2.60;;;0.95;;
25299;SDS011;13241;51.208;4.432;2022-07-01T15:40:16;2.90;;;0.93;;
25299;SDS011;13241;51.208;4.432;2022-07-01T15:42:44;2.78;;;0.88;;
25299;SDS011;13241;51.208;4.432;2022-07-01T15:45:11;1.27;;;0.63;;
25299;SDS011;13241;51.208;4.432;2022-07-01T15:47:38;6.38;;;0.77;;
25299;SDS011;13241;51.208;4.432;2022-07-01T15:50:23;1.60;;;0.60;;